createdAt,value
2018-02-09T00:00:27.050Z,1006.89
2018-02-09T00:01:27.076Z,1006.92
2018-02-09T00:02:27.105Z,1006.95
2018-02-09T00:03:27.135Z,1006.95
2018-02-09T00:04:27.158Z,1006.91
2018-02-09T00:05:27.190Z,1006.92
2018-02-09T00:06:27.215Z,1006.92
2018-02-09T00:07:27.251Z,1006.88
2018-02-09T00:08:27.274Z,1006.91
2018-02-09T00:09:27.297Z,1006.88
2018-02-09T00:10:27.352Z,1006.88
2018-02-09T00:11:27.353Z,1006.88
2018-02-09T00:12:27.380Z,1006.89
2018-02-09T00:13:27.411Z,1006.85
2018-02-09T00:14:27.441Z,1006.87
2018-02-09T00:15:27.466Z,1006.89
2018-02-09T00:16:27.521Z,1006.84
2018-02-09T00:17:27.520Z,1006.82
2018-02-09T00:18:27.581Z,1006.81
2018-02-09T00:19:27.578Z,1006.87
2018-02-09T00:20:27.602Z,1006.85
2018-02-09T00:21:27.631Z,1006.87
2018-02-09T00:22:27.658Z,1006.84
2018-02-09T00:23:27.715Z,1006.85
2018-02-09T00:24:27.714Z,1006.87
2018-02-09T00:25:27.740Z,1006.87
2018-02-09T00:26:27.767Z,1006.88
2018-02-09T00:27:27.794Z,1006.84
2018-02-09T00:28:27.821Z,1006.87
2018-02-09T00:29:27.849Z,1006.87
2018-02-09T00:30:27.879Z,1006.88
2018-02-09T00:31:27.904Z,1006.88
2018-02-09T00:32:27.932Z,1006.87
2018-02-09T00:33:27.978Z,1006.87
2018-02-09T00:34:27.988Z,1006.88
2018-02-09T00:35:28.016Z,1006.83
2018-02-09T00:36:28.042Z,1006.85
2018-02-09T00:37:28.070Z,1006.86
2018-02-09T00:38:28.098Z,1006.85
2018-02-09T00:39:28.125Z,1006.83
2018-02-09T00:40:28.152Z,1006.82
2018-02-09T00:41:28.183Z,1006.83
2018-02-09T00:42:28.208Z,1006.83
2018-02-09T00:43:28.236Z,1006.84
2018-02-09T00:44:28.263Z,1006.82
2018-02-09T00:45:28.292Z,1006.80
2018-02-09T00:46:28.320Z,1006.82
2018-02-09T00:47:28.348Z,1006.80
2018-02-09T00:48:28.374Z,1006.80
2018-02-09T00:49:28.402Z,1006.82
2018-02-09T00:50:28.432Z,1006.86
2018-02-09T00:51:28.458Z,1006.86
2018-02-09T00:52:28.485Z,1006.83
2018-02-09T00:53:28.514Z,1006.85
2018-02-09T00:54:28.544Z,1006.82
2018-02-09T00:55:28.568Z,1006.86
2018-02-09T00:56:28.596Z,1006.87
2018-02-09T00:57:28.624Z,1006.88
2018-02-09T00:58:28.653Z,1006.88
2018-02-09T00:59:28.704Z,1006.90
2018-02-09T01:00:28.732Z,1006.87
2018-02-09T01:01:28.733Z,1006.86
2018-02-09T01:02:28.765Z,1006.84
2018-02-09T01:03:28.795Z,1006.88
2018-02-09T01:04:28.821Z,1006.86
2018-02-09T01:05:28.856Z,1006.84
2018-02-09T01:06:28.877Z,1006.86
2018-02-09T01:07:28.900Z,1006.83
2018-02-09T01:08:28.928Z,1006.86
2018-02-09T01:09:28.957Z,1006.86
2018-02-09T01:10:28.985Z,1006.87
2018-02-09T01:11:29.011Z,1006.87
2018-02-09T01:12:29.038Z,1006.86
2018-02-09T01:13:29.066Z,1006.87
2018-02-09T01:14:29.094Z,1006.90
2018-02-09T01:15:29.123Z,1006.89
2018-02-09T01:16:29.151Z,1006.86
2018-02-09T01:17:29.183Z,1006.85
2018-02-09T01:18:29.203Z,1006.89
2018-02-09T01:19:29.236Z,1006.86
2018-02-09T01:20:29.265Z,1006.89
2018-02-09T01:21:29.295Z,1006.89
2018-02-09T01:22:29.315Z,1006.91
2018-02-09T01:23:29.344Z,1006.86
2018-02-09T01:24:29.375Z,1006.86
2018-02-09T01:25:29.403Z,1006.88
2018-02-09T01:26:29.431Z,1006.91
2018-02-09T01:27:29.466Z,1006.91
2018-02-09T01:28:29.487Z,1006.88
2018-02-09T01:29:29.519Z,1006.88
2018-02-09T01:30:29.547Z,1006.90
2018-02-09T01:31:29.569Z,1006.87
2018-02-09T01:32:29.599Z,1006.92
2018-02-09T01:33:29.622Z,1006.90
2018-02-09T01:34:29.649Z,1006.94
2018-02-09T01:35:29.678Z,1006.89
2018-02-09T01:36:29.701Z,1006.93
2018-02-09T01:37:29.735Z,1006.89
2018-02-09T01:38:29.764Z,1006.88
2018-02-09T01:39:29.787Z,1006.88
2018-02-09T01:40:29.840Z,1006.89
2018-02-09T01:41:29.847Z,1006.88
2018-02-09T01:42:29.919Z,1006.90
2018-02-09T01:43:29.901Z,1006.88
2018-02-09T01:44:29.945Z,1006.89
2018-02-09T01:45:29.951Z,1006.88
2018-02-09T01:46:29.984Z,1006.87
2018-02-09T01:47:30.014Z,1006.89
2018-02-09T01:48:30.039Z,1006.89
2018-02-09T01:49:30.066Z,1006.87
2018-02-09T01:50:30.115Z,1006.87
2018-02-09T01:51:30.119Z,1006.88
2018-02-09T01:52:30.149Z,1006.91
2018-02-09T01:53:30.173Z,1006.88
2018-02-09T01:54:30.209Z,1006.92
2018-02-09T01:55:30.283Z,1006.92
2018-02-09T01:56:30.259Z,1006.86
2018-02-09T01:57:30.285Z,1006.89
2018-02-09T01:58:30.316Z,1006.89
2018-02-09T01:59:30.343Z,1006.87
2018-02-09T02:00:30.370Z,1006.88
2018-02-09T02:01:30.405Z,1006.88
2018-02-09T02:02:30.426Z,1006.87
2018-02-09T02:03:30.457Z,1006.90
2018-02-09T02:04:30.489Z,1006.89
2018-02-09T02:05:30.511Z,1006.90
2018-02-09T02:06:30.546Z,1006.93
2018-02-09T02:07:30.566Z,1006.89
2018-02-09T02:08:30.595Z,1006.91
2018-02-09T02:09:30.620Z,1006.90
2018-02-09T02:10:30.674Z,1006.96
2018-02-09T02:11:30.674Z,1006.95
2018-02-09T02:12:30.701Z,1006.94
2018-02-09T02:13:30.726Z,1006.97
2018-02-09T02:14:30.756Z,1006.98
2018-02-09T02:15:30.787Z,1006.97
2018-02-09T02:16:30.814Z,1006.94
2018-02-09T02:17:30.859Z,1006.92
2018-02-09T02:18:30.869Z,1006.95
2018-02-09T02:19:30.894Z,1006.98
2018-02-09T02:20:30.947Z,1006.97
2018-02-09T02:21:30.956Z,1006.96
2018-02-09T02:22:30.978Z,1006.97
2018-02-09T02:23:31.009Z,1006.98
2018-02-09T02:24:31.080Z,1006.97
2018-02-09T02:25:31.064Z,1006.94
2018-02-09T02:26:31.110Z,1006.92
2018-02-09T02:27:31.120Z,1006.98
2018-02-09T02:28:31.153Z,1006.94
2018-02-09T02:29:31.176Z,1006.97
2018-02-09T02:30:31.201Z,1006.95
2018-02-09T02:31:31.228Z,1006.94
2018-02-09T02:32:31.258Z,1006.96
2018-02-09T02:33:31.283Z,1006.96
2018-02-09T02:34:31.312Z,1006.94
2018-02-09T02:35:31.341Z,1006.95
2018-02-09T02:36:31.373Z,1006.96
2018-02-09T02:37:31.396Z,1006.96
2018-02-09T02:38:31.425Z,1006.93
2018-02-09T02:39:31.454Z,1006.96
2018-02-09T02:40:31.476Z,1006.97
2018-02-09T02:41:31.506Z,1006.99
2018-02-09T02:42:31.536Z,1006.97
2018-02-09T02:43:31.562Z,1006.94
2018-02-09T02:44:31.592Z,1007.00
2018-02-09T02:45:31.618Z,1007.02
2018-02-09T02:46:31.645Z,1007.03
2018-02-09T02:47:31.676Z,1007.00
2018-02-09T02:48:31.698Z,1007.04
2018-02-09T02:49:31.727Z,1007.04
2018-02-09T02:50:31.758Z,1007.07
2018-02-09T02:51:31.780Z,1007.03
2018-02-09T02:52:31.831Z,1007.01
2018-02-09T02:53:31.838Z,1007.01
2018-02-09T02:54:31.868Z,1007.01
2018-02-09T02:55:31.890Z,1007.06
2018-02-09T02:56:31.920Z,1007.04
2018-02-09T02:57:31.945Z,1007.05
2018-02-09T02:58:32.014Z,1007.10
2018-02-09T02:59:32.050Z,1007.11
2018-02-09T03:00:32.031Z,1007.16
2018-02-09T03:01:32.055Z,1007.17
2018-02-09T03:02:32.087Z,1007.10
2018-02-09T03:03:32.123Z,1007.15
2018-02-09T03:04:32.142Z,1007.16
2018-02-09T03:05:32.168Z,1007.21
2018-02-09T03:06:32.197Z,1007.17
2018-02-09T03:07:32.228Z,1007.18
2018-02-09T03:08:32.250Z,1007.22
2018-02-09T03:09:32.279Z,1007.21
2018-02-09T03:10:32.316Z,1007.20
2018-02-09T03:11:32.335Z,1007.18
2018-02-09T03:12:32.365Z,1007.22
2018-02-09T03:13:32.390Z,1007.21
2018-02-09T03:14:32.457Z,1007.20
2018-02-09T03:15:32.452Z,1007.22
2018-02-09T03:16:32.471Z,1007.23
2018-02-09T03:17:32.505Z,1007.23
2018-02-09T03:18:32.527Z,1007.27
2018-02-09T03:19:32.559Z,1007.22
2018-02-09T03:20:32.585Z,1007.25
2018-02-09T03:21:32.613Z,1007.25
2018-02-09T03:22:32.643Z,1007.23
2018-02-09T03:23:32.670Z,1007.25
2018-02-09T03:24:32.701Z,1007.24
2018-02-09T03:25:32.725Z,1007.24
2018-02-09T03:26:32.748Z,1007.29
2018-02-09T03:27:32.786Z,1007.29
2018-02-09T03:28:32.808Z,1007.27
2018-02-09T03:29:32.836Z,1007.34
2018-02-09T03:30:32.870Z,1007.30
2018-02-09T03:31:32.892Z,1007.35
2018-02-09T03:32:32.917Z,1007.33
2018-02-09T03:33:32.948Z,1007.35
2018-02-09T03:34:32.977Z,1007.36
2018-02-09T03:35:33.005Z,1007.37
2018-02-09T03:36:33.026Z,1007.32
2018-02-09T03:37:33.055Z,1007.32
2018-02-09T03:38:33.088Z,1007.31
2018-02-09T03:39:33.116Z,1007.29
2018-02-09T03:40:33.160Z,1007.28
2018-02-09T03:41:33.168Z,1007.26
2018-02-09T03:42:33.199Z,1007.22
2018-02-09T03:43:33.224Z,1007.22
2018-02-09T03:44:33.253Z,1007.23
2018-02-09T03:45:33.281Z,1007.24
2018-02-09T03:46:33.305Z,1007.24
2018-02-09T03:47:33.337Z,1007.32
2018-02-09T03:48:33.368Z,1007.27
2018-02-09T03:49:33.394Z,1007.36
2018-02-09T03:50:33.422Z,1007.33
2018-02-09T03:51:33.448Z,1007.29
2018-02-09T03:52:33.472Z,1007.29
2018-02-09T03:53:33.499Z,1007.30
2018-02-09T03:54:33.531Z,1007.30
2018-02-09T03:55:33.560Z,1007.36
2018-02-09T03:56:33.586Z,1007.30
2018-02-09T03:57:33.610Z,1007.33
2018-02-09T03:58:33.638Z,1007.35
2018-02-09T03:59:33.703Z,1007.33
2018-02-09T04:00:33.698Z,1007.34
2018-02-09T04:01:33.724Z,1007.37
2018-02-09T04:02:33.751Z,1007.31
2018-02-09T04:03:33.778Z,1007.33
2018-02-09T04:04:33.808Z,1007.33
2018-02-09T04:05:33.832Z,1007.38
2018-02-09T04:06:33.861Z,1007.34
2018-02-09T04:07:33.894Z,1007.36
2018-02-09T04:08:33.917Z,1007.35
2018-02-09T04:09:33.948Z,1007.35
2018-02-09T04:10:33.972Z,1007.39
2018-02-09T04:11:34.011Z,1007.38
2018-02-09T04:12:34.032Z,1007.38
2018-02-09T04:13:34.059Z,1007.47
2018-02-09T04:14:34.085Z,1007.36
2018-02-09T04:15:34.108Z,1007.41
2018-02-09T04:16:34.138Z,1007.42
2018-02-09T04:17:34.173Z,1007.44
2018-02-09T04:18:34.195Z,1007.41
2018-02-09T04:19:34.265Z,1007.42
2018-02-09T04:20:34.248Z,1007.40
2018-02-09T04:21:34.277Z,1007.39
2018-02-09T04:22:34.311Z,1007.41
2018-02-09T04:23:34.336Z,1007.42
2018-02-09T04:24:34.358Z,1007.44
2018-02-09T04:25:34.391Z,1007.41
2018-02-09T04:26:34.416Z,1007.44
2018-02-09T04:27:34.450Z,1007.41
2018-02-09T04:28:34.472Z,1007.36
2018-02-09T04:29:34.503Z,1007.41
2018-02-09T04:30:34.526Z,1007.36
2018-02-09T04:31:34.552Z,1007.42
2018-02-09T04:32:34.615Z,1007.40
2018-02-09T04:33:34.610Z,1007.41
2018-02-09T04:34:34.639Z,1007.36
2018-02-09T04:35:34.665Z,1007.33
2018-02-09T04:36:34.711Z,1007.38
2018-02-09T04:37:34.794Z,1007.36
2018-02-09T04:38:34.753Z,1007.38
2018-02-09T04:39:34.777Z,1007.31
2018-02-09T04:40:34.805Z,1007.32
2018-02-09T04:41:34.834Z,1007.31
2018-02-09T04:42:34.901Z,1007.30
2018-02-09T04:43:34.886Z,1007.27
2018-02-09T04:44:34.917Z,1007.28
2018-02-09T04:45:34.948Z,1007.30
2018-02-09T04:46:34.969Z,1007.34
2018-02-09T04:47:35.001Z,1007.35
2018-02-09T04:48:35.064Z,1007.33
2018-02-09T04:49:35.055Z,1007.35
2018-02-09T04:50:35.086Z,1007.31
2018-02-09T04:51:35.112Z,1007.31
2018-02-09T04:52:35.144Z,1007.27
2018-02-09T04:53:35.169Z,1007.28
2018-02-09T04:54:35.191Z,1007.30
2018-02-09T04:55:35.222Z,1007.30
2018-02-09T04:56:35.246Z,1007.29
2018-02-09T04:57:35.278Z,1007.29
2018-02-09T04:58:35.302Z,1007.32
2018-02-09T04:59:35.334Z,1007.27
2018-02-09T05:00:35.358Z,1007.30
2018-02-09T05:01:35.389Z,1007.31
2018-02-09T05:02:35.416Z,1007.30
2018-02-09T05:03:35.442Z,1007.27
2018-02-09T05:04:35.469Z,1007.28
2018-02-09T05:05:35.498Z,1007.26
2018-02-09T05:06:35.536Z,1007.27
2018-02-09T05:07:35.553Z,1007.29
2018-02-09T05:08:35.581Z,1007.26
2018-02-09T05:09:35.627Z,1007.28
2018-02-09T05:10:35.637Z,1007.29
2018-02-09T05:11:35.665Z,1007.26
2018-02-09T05:12:35.697Z,1007.28
2018-02-09T05:13:35.734Z,1007.30
2018-02-09T05:14:35.772Z,1007.28
2018-02-09T05:15:35.784Z,1007.26
2018-02-09T05:16:35.844Z,1007.27
2018-02-09T05:17:35.837Z,1007.32
2018-02-09T05:18:35.862Z,1007.32
2018-02-09T05:19:35.888Z,1007.30
2018-02-09T05:20:35.916Z,1007.30
2018-02-09T05:21:35.943Z,1007.29
2018-02-09T05:22:35.972Z,1007.35
2018-02-09T05:23:36.001Z,1007.35
2018-02-09T05:24:36.027Z,1007.39
2018-02-09T05:25:36.056Z,1007.39
2018-02-09T05:26:36.084Z,1007.42
2018-02-09T05:27:36.114Z,1007.41
2018-02-09T05:28:36.147Z,1007.41
2018-02-09T05:29:36.171Z,1007.44
2018-02-09T05:30:36.199Z,1007.37
2018-02-09T05:31:36.232Z,1007.46
2018-02-09T05:32:36.257Z,1007.45
2018-02-09T05:33:36.286Z,1007.45
2018-02-09T05:34:36.313Z,1007.48
2018-02-09T05:35:36.340Z,1007.47
2018-02-09T05:36:36.369Z,1007.49
2018-02-09T05:37:36.392Z,1007.46
2018-02-09T05:38:36.422Z,1007.46
2018-02-09T05:39:36.453Z,1007.44
2018-02-09T05:40:36.480Z,1007.46
2018-02-09T05:41:36.508Z,1007.41
2018-02-09T05:42:36.529Z,1007.43
2018-02-09T05:43:36.565Z,1007.42
2018-02-09T05:44:36.591Z,1007.45
2018-02-09T05:45:36.619Z,1007.51
2018-02-09T05:46:36.695Z,1007.44
2018-02-09T05:47:36.679Z,1007.43
2018-02-09T05:48:36.700Z,1007.42
2018-02-09T05:49:36.731Z,1007.49
2018-02-09T05:50:36.762Z,1007.45
2018-02-09T05:51:36.789Z,1007.46
2018-02-09T05:52:36.813Z,1007.52
2018-02-09T05:53:36.859Z,1007.50
2018-02-09T05:54:36.871Z,1007.52
2018-02-09T05:55:36.897Z,1007.49
2018-02-09T05:56:36.926Z,1007.48
2018-02-09T05:57:36.968Z,1007.48
2018-02-09T05:58:36.978Z,1007.52
2018-02-09T05:59:37.013Z,1007.47
2018-02-09T06:00:37.037Z,1007.53
2018-02-09T06:01:37.065Z,1007.52
2018-02-09T06:02:37.096Z,1007.51
2018-02-09T06:03:37.136Z,1007.53
2018-02-09T06:04:37.172Z,1007.56
2018-02-09T06:05:37.180Z,1007.54
2018-02-09T06:06:37.206Z,1007.51
2018-02-09T06:07:37.234Z,1007.51
2018-02-09T06:08:37.260Z,1007.54
2018-02-09T06:09:37.290Z,1007.56
2018-02-09T06:10:37.316Z,1007.57
2018-02-09T06:11:37.346Z,1007.52
2018-02-09T06:12:37.372Z,1007.55
2018-02-09T06:13:37.424Z,1007.56
2018-02-09T06:14:37.432Z,1007.56
2018-02-09T06:15:37.460Z,1007.59
2018-02-09T06:16:37.485Z,1007.65
2018-02-09T06:17:37.516Z,1007.61
2018-02-09T06:18:37.542Z,1007.61
2018-02-09T06:19:37.572Z,1007.67
2018-02-09T06:20:37.603Z,1007.63
2018-02-09T06:21:37.623Z,1007.66
2018-02-09T06:22:37.651Z,1007.68
2018-02-09T06:23:37.681Z,1007.70
2018-02-09T06:24:37.705Z,1007.68
2018-02-09T06:25:37.738Z,1007.63
2018-02-09T06:26:37.765Z,1007.67
2018-02-09T06:27:37.795Z,1007.67
2018-02-09T06:28:37.822Z,1007.68
2018-02-09T06:29:37.852Z,1007.67
2018-02-09T06:30:37.876Z,1007.63
2018-02-09T06:31:37.904Z,1007.68
2018-02-09T06:32:37.964Z,1007.68
2018-02-09T06:33:37.960Z,1007.69
2018-02-09T06:34:38.009Z,1007.70
2018-02-09T06:35:38.019Z,1007.64
2018-02-09T06:36:38.046Z,1007.68
2018-02-09T06:37:38.074Z,1007.65
2018-02-09T06:38:38.099Z,1007.69
2018-02-09T06:39:38.129Z,1007.71
2018-02-09T06:40:38.159Z,1007.71
2018-02-09T06:41:38.182Z,1007.79
2018-02-09T06:42:38.215Z,1007.68
2018-02-09T06:43:38.243Z,1007.65
2018-02-09T06:44:38.267Z,1007.69
2018-02-09T06:45:38.299Z,1007.69
2018-02-09T06:46:38.341Z,1007.64
2018-02-09T06:47:38.389Z,1007.68
2018-02-09T06:48:38.383Z,1007.70
2018-02-09T06:49:38.408Z,1007.75
2018-02-09T06:50:38.439Z,1007.75
2018-02-09T06:51:38.463Z,1007.76
2018-02-09T06:52:38.489Z,1007.75
2018-02-09T06:53:38.518Z,1007.77
2018-02-09T06:54:38.549Z,1007.74
2018-02-09T06:55:38.578Z,1007.78
2018-02-09T06:56:38.601Z,1007.81
2018-02-09T06:57:38.632Z,1007.76
2018-02-09T06:58:38.663Z,1007.75
2018-02-09T06:59:38.714Z,1007.73
2018-02-09T07:00:38.719Z,1007.79
2018-02-09T07:01:38.743Z,1007.70
2018-02-09T07:02:38.773Z,1007.70
2018-02-09T07:03:38.802Z,1007.74
2018-02-09T07:04:38.829Z,1007.72
2018-02-09T07:05:38.883Z,1007.74
2018-02-09T07:06:38.880Z,1007.68
2018-02-09T07:07:38.916Z,1007.74
2018-02-09T07:08:38.944Z,1007.75
2018-02-09T07:09:39.030Z,1007.79
2018-02-09T07:10:39.004Z,1007.78
2018-02-09T07:11:39.025Z,1007.82
2018-02-09T07:12:39.049Z,1007.87
2018-02-09T07:13:39.080Z,1007.80
2018-02-09T07:14:39.111Z,1007.84
2018-02-09T07:15:39.137Z,1007.84
2018-02-09T07:16:39.165Z,1007.86
2018-02-09T07:17:39.194Z,1007.86
2018-02-09T07:18:39.220Z,1007.87
2018-02-09T07:19:39.254Z,1007.91
2018-02-09T07:20:39.279Z,1007.92
2018-02-09T07:21:39.304Z,1007.92
2018-02-09T07:22:39.350Z,1007.92
2018-02-09T07:23:39.365Z,1007.92
2018-02-09T07:24:39.384Z,1007.95
2018-02-09T07:25:39.417Z,1007.90
2018-02-09T07:26:40.151Z,1007.94
2018-02-09T07:27:39.505Z,1008.00
2018-02-09T07:28:39.503Z,1008.09
2018-02-09T07:29:40.176Z,1007.97
2018-02-09T07:30:39.557Z,1008.03
2018-02-09T07:31:39.586Z,1007.97
2018-02-09T07:32:39.613Z,1008.00
2018-02-09T07:33:39.646Z,1007.98
2018-02-09T07:34:39.669Z,1008.04
2018-02-09T07:35:39.699Z,1008.03
2018-02-09T07:36:39.723Z,1008.01
2018-02-09T07:37:39.752Z,1008.00
2018-02-09T07:38:39.782Z,1008.08
2018-02-09T07:39:39.810Z,1008.01
2018-02-09T07:40:39.836Z,1008.00
2018-02-09T07:41:39.870Z,1008.05
2018-02-09T07:42:39.889Z,1008.01
2018-02-09T07:43:39.921Z,1007.98
2018-02-09T07:44:39.946Z,1008.01
2018-02-09T07:45:39.980Z,1008.03
2018-02-09T07:46:40.020Z,1008.02
2018-02-09T07:47:40.033Z,1008.00
2018-02-09T07:48:40.061Z,1008.01
2018-02-09T07:49:40.087Z,1008.03
2018-02-09T07:50:40.115Z,1008.01
2018-02-09T07:51:40.146Z,1008.05
2018-02-09T07:52:40.171Z,1008.07
2018-02-09T07:53:40.206Z,1008.07
2018-02-09T07:54:40.227Z,1008.10
2018-02-09T07:55:40.256Z,1008.06
2018-02-09T07:56:40.289Z,1008.08
2018-02-09T07:57:40.313Z,1008.03
2018-02-09T07:58:40.348Z,1008.05
2018-02-09T07:59:40.370Z,1008.01
2018-02-09T08:00:40.399Z,1008.03
2018-02-09T08:01:40.424Z,1008.11
2018-02-09T08:02:40.457Z,1008.05
2018-02-09T08:03:40.506Z,1008.05
2018-02-09T08:04:40.540Z,1008.10
2018-02-09T08:05:40.537Z,1008.09
2018-02-09T08:06:40.566Z,1008.12
2018-02-09T08:07:40.591Z,1008.12
2018-02-09T08:08:40.622Z,1008.12
2018-02-09T08:09:40.650Z,1008.11
2018-02-09T08:10:40.680Z,1008.12
2018-02-09T08:11:40.708Z,1008.13
2018-02-09T08:12:40.737Z,1008.14
2018-02-09T08:13:40.774Z,1008.11
2018-02-09T08:14:40.792Z,1008.11
2018-02-09T08:15:40.819Z,1008.12
2018-02-09T08:16:40.846Z,1008.11
2018-02-09T08:17:40.874Z,1008.13
2018-02-09T08:18:40.902Z,1008.16
2018-02-09T08:19:40.927Z,1008.19
2018-02-09T08:20:40.960Z,1008.17
2018-02-09T08:21:40.985Z,1008.17
2018-02-09T08:22:41.011Z,1008.21
2018-02-09T08:23:41.045Z,1008.23
2018-02-09T08:24:41.068Z,1008.24
2018-02-09T08:25:41.099Z,1008.24
2018-02-09T08:26:41.124Z,1008.26
2018-02-09T08:27:41.158Z,1008.27
2018-02-09T08:28:41.184Z,1008.27
2018-02-09T08:29:41.211Z,1008.25
2018-02-09T08:30:41.245Z,1008.28
2018-02-09T08:31:41.269Z,1008.29
2018-02-09T08:32:41.297Z,1008.30
2018-02-09T08:33:41.325Z,1008.29
2018-02-09T08:34:41.351Z,1008.27
2018-02-09T08:35:41.391Z,1008.30
2018-02-09T08:36:41.410Z,1008.32
2018-02-09T08:37:41.436Z,1008.38
2018-02-09T08:38:41.466Z,1008.33
2018-02-09T08:39:41.494Z,1008.28
2018-02-09T08:40:41.519Z,1008.33
2018-02-09T08:41:41.553Z,1008.28
2018-02-09T08:42:41.577Z,1008.30
2018-02-09T08:43:41.607Z,1008.29
2018-02-09T08:44:41.637Z,1008.30
2018-02-09T08:45:41.663Z,1008.31
2018-02-09T08:46:41.693Z,1008.30
2018-02-09T08:47:41.722Z,1008.31
2018-02-09T08:48:41.748Z,1008.31
2018-02-09T08:49:41.774Z,1008.32
2018-02-09T08:50:41.808Z,1008.32
2018-02-09T08:51:41.832Z,1008.36
2018-02-09T08:52:41.862Z,1008.37
2018-02-09T08:53:41.888Z,1008.33
2018-02-09T08:54:41.918Z,1008.35
2018-02-09T08:55:41.983Z,1008.38
2018-02-09T08:56:41.973Z,1008.42
2018-02-09T08:57:42.003Z,1008.29
2018-02-09T08:58:42.033Z,1008.36
2018-02-09T08:59:42.080Z,1008.37
2018-02-09T09:00:42.090Z,1008.27
2018-02-09T09:01:42.113Z,1008.33
2018-02-09T09:02:42.147Z,1008.35
2018-02-09T09:03:42.170Z,1008.36
2018-02-09T09:04:42.198Z,1008.42
2018-02-09T09:05:42.228Z,1008.43
2018-02-09T09:06:42.254Z,1008.41
2018-02-09T09:07:42.284Z,1008.41
2018-02-09T09:08:42.346Z,1008.42
2018-02-09T09:09:42.340Z,1008.42
2018-02-09T09:10:42.366Z,1008.42
2018-02-09T09:11:42.431Z,1008.40
2018-02-09T09:12:42.424Z,1008.42
2018-02-09T09:13:42.453Z,1008.40
2018-02-09T09:14:42.520Z,1008.42
2018-02-09T09:15:42.507Z,1008.39
2018-02-09T09:16:42.536Z,1008.44
2018-02-09T09:17:42.564Z,1008.43
2018-02-09T09:18:42.615Z,1008.45
2018-02-09T09:19:42.629Z,1008.42
2018-02-09T09:20:42.650Z,1008.49
2018-02-09T09:21:42.677Z,1008.41
2018-02-09T09:22:42.706Z,1008.39
2018-02-09T09:23:42.733Z,1008.36
2018-02-09T09:24:42.803Z,1008.41
2018-02-09T09:25:42.792Z,1008.36
2018-02-09T09:26:42.821Z,1008.35
2018-02-09T09:27:43.710Z,1008.35
2018-02-09T09:28:42.873Z,1008.36
2018-02-09T09:29:42.904Z,1008.37
2018-02-09T09:30:42.932Z,1008.37
2018-02-09T09:31:42.961Z,1008.36
2018-02-09T09:32:42.994Z,1008.39
2018-02-09T09:33:43.018Z,1008.42
2018-02-09T09:34:43.042Z,1008.40
2018-02-09T09:35:43.073Z,1008.39
2018-02-09T09:36:43.101Z,1008.37
2018-02-09T09:37:43.131Z,1008.35
2018-02-09T09:38:43.157Z,1008.34
2018-02-09T09:39:43.190Z,1008.33
2018-02-09T09:40:43.240Z,1008.35
2018-02-09T09:41:43.417Z,1008.36
2018-02-09T09:42:43.271Z,1008.36
2018-02-09T09:43:43.305Z,1008.37
2018-02-09T09:44:43.329Z,1008.36
2018-02-09T09:45:43.354Z,1008.37
2018-02-09T09:46:43.386Z,1008.42
2018-02-09T09:47:43.414Z,1008.45
2018-02-09T09:48:43.442Z,1008.45
2018-02-09T09:49:43.468Z,1008.45
2018-02-09T09:50:43.499Z,1008.51
2018-02-09T09:51:43.524Z,1008.48
2018-02-09T09:52:43.552Z,1008.45
2018-02-09T09:53:43.580Z,1008.48
2018-02-09T09:54:43.616Z,1008.43
2018-02-09T09:55:43.681Z,1008.47
2018-02-09T09:56:43.666Z,1008.44
2018-02-09T09:57:43.730Z,1008.47
2018-02-09T09:58:43.724Z,1008.43
2018-02-09T09:59:43.756Z,1008.48
2018-02-09T10:00:43.780Z,1008.43
2018-02-09T10:01:43.809Z,1008.48
2018-02-09T10:02:43.841Z,1008.49
2018-02-09T10:03:43.865Z,1008.48
2018-02-09T10:04:43.899Z,1008.48
2018-02-09T10:05:43.922Z,1008.51
2018-02-09T10:06:43.954Z,1008.50
2018-02-09T10:07:43.984Z,1008.52
2018-02-09T10:08:44.019Z,1008.49
2018-02-09T10:09:44.069Z,1008.61
2018-02-09T10:10:44.064Z,1008.53
2018-02-09T10:11:44.090Z,1008.54
2018-02-09T10:12:44.129Z,1008.51
2018-02-09T10:13:44.188Z,1008.53
2018-02-09T10:14:44.175Z,1008.54
2018-02-09T10:15:44.204Z,1008.52
2018-02-09T10:16:44.230Z,1008.55
2018-02-09T10:17:44.260Z,1008.54
2018-02-09T10:18:44.298Z,1008.57
2018-02-09T10:19:44.322Z,1008.56
2018-02-09T10:20:44.349Z,1008.59
2018-02-09T10:21:44.373Z,1008.60
2018-02-09T10:22:44.401Z,1008.59
2018-02-09T10:23:44.433Z,1008.60
2018-02-09T10:24:44.458Z,1008.59
2018-02-09T10:25:44.488Z,1008.59
2018-02-09T10:26:44.543Z,1008.53
2018-02-09T10:27:44.544Z,1008.58
2018-02-09T10:28:44.572Z,1008.52
2018-02-09T10:29:44.601Z,1008.53
2018-02-09T10:30:44.631Z,1008.49
2018-02-09T10:31:44.656Z,1008.56
2018-02-09T10:32:44.701Z,1008.50
2018-02-09T10:33:44.716Z,1008.50
2018-02-09T10:34:44.745Z,1008.50
2018-02-09T10:35:44.771Z,1008.55
2018-02-09T10:36:44.799Z,1008.57
2018-02-09T10:37:44.825Z,1008.55
2018-02-09T10:38:44.859Z,1008.55
2018-02-09T10:39:44.898Z,1008.56
2018-02-09T10:40:44.911Z,1008.57
2018-02-09T10:41:44.942Z,1008.56
2018-02-09T10:42:44.967Z,1008.55
2018-02-09T10:43:44.999Z,1008.58
2018-02-09T10:44:45.028Z,1008.58
2018-02-09T10:45:45.058Z,1008.54
2018-02-09T10:46:45.084Z,1008.50
2018-02-09T10:47:45.113Z,1008.52
2018-02-09T10:48:45.141Z,1008.49
2018-02-09T10:49:45.167Z,1008.47
2018-02-09T10:50:45.197Z,1008.48
2018-02-09T10:51:45.228Z,1008.45
2018-02-09T10:52:45.253Z,1008.46
2018-02-09T10:53:45.286Z,1008.44
2018-02-09T10:54:45.313Z,1008.41
2018-02-09T10:55:45.375Z,1008.42
2018-02-09T10:56:45.404Z,1008.44
2018-02-09T10:57:45.396Z,1008.40
2018-02-09T10:58:45.425Z,1008.39
2018-02-09T10:59:45.452Z,1008.40
2018-02-09T11:00:45.478Z,1008.40
2018-02-09T11:01:45.510Z,1008.41
2018-02-09T11:02:45.537Z,1008.44
2018-02-09T11:03:45.567Z,1008.44
2018-02-09T11:04:45.595Z,1008.49
2018-02-09T11:05:45.621Z,1008.47
2018-02-09T11:06:45.650Z,1008.57
2018-02-09T11:07:45.679Z,1008.49
2018-02-09T11:08:45.738Z,1008.62
2018-02-09T11:09:45.735Z,1008.55
2018-02-09T11:10:45.792Z,1008.57
2018-02-09T11:11:45.806Z,1008.49
2018-02-09T11:12:45.819Z,1008.51
2018-02-09T11:13:45.850Z,1008.56
2018-02-09T11:14:45.876Z,1008.58
2018-02-09T11:15:45.906Z,1008.60
2018-02-09T11:16:45.934Z,1008.61
2018-02-09T11:17:45.960Z,1008.56
2018-02-09T11:18:45.992Z,1008.58
2018-02-09T11:19:46.019Z,1008.64
2018-02-09T11:20:46.047Z,1008.66
2018-02-09T11:21:46.103Z,1008.64
2018-02-09T11:22:46.106Z,1008.65
2018-02-09T11:23:46.132Z,1008.64
2018-02-09T11:24:46.192Z,1008.68
2018-02-09T11:25:46.228Z,1008.64
2018-02-09T11:26:46.239Z,1008.63
2018-02-09T11:27:46.246Z,1008.70
2018-02-09T11:28:46.276Z,1008.69
2018-02-09T11:29:46.333Z,1008.69
2018-02-09T11:30:46.330Z,1008.72
2018-02-09T11:31:46.359Z,1008.70
2018-02-09T11:32:46.390Z,1008.69
2018-02-09T11:33:46.415Z,1008.76
2018-02-09T11:34:46.444Z,1008.65
2018-02-09T11:35:46.491Z,1008.68
2018-02-09T11:36:46.500Z,1008.64
2018-02-09T11:37:46.529Z,1008.62
2018-02-09T11:38:46.556Z,1008.61
2018-02-09T11:39:46.587Z,1008.61
2018-02-09T11:40:46.616Z,1008.65
2018-02-09T11:41:46.651Z,1008.64
2018-02-09T11:42:46.719Z,1008.69
2018-02-09T11:43:46.697Z,1008.69
2018-02-09T11:44:46.729Z,1008.66
2018-02-09T11:45:46.763Z,1008.68
2018-02-09T11:46:46.785Z,1008.73
2018-02-09T11:47:46.851Z,1008.70
2018-02-09T11:48:46.842Z,1008.70
2018-02-09T11:49:46.871Z,1008.74
2018-02-09T11:50:46.899Z,1008.74
2018-02-09T11:51:46.925Z,1008.70
2018-02-09T11:52:47.002Z,1008.70
2018-02-09T11:53:46.982Z,1008.69
2018-02-09T11:54:47.041Z,1008.70
2018-02-09T11:55:47.042Z,1008.70
2018-02-09T11:56:47.069Z,1008.74
2018-02-09T11:57:47.096Z,1008.71
2018-02-09T11:58:47.126Z,1008.72
2018-02-09T11:59:47.179Z,1008.71
2018-02-09T12:00:47.181Z,1008.77
2018-02-09T12:01:47.208Z,1008.73
2018-02-09T12:02:47.240Z,1008.78
2018-02-09T12:03:47.270Z,1008.78
2018-02-09T12:04:47.292Z,1008.80
2018-02-09T12:05:47.322Z,1008.82